SCFO weather

La Reforma Airport
Pelarco, Maule Region, Chile

Public forecast

Using degrees Celsius for public forecast. Weather courtesy of forecast.io.

METAR (pilot weather report)

Closest report is General Freire Airport, 29.7 nm (55.0 km) N. Retrieved 2019/05/19 12:00 UTC (25 minutes ago):

SCIC 191200Z AUTO 19008KT 5000 BR OVC002 04/04 Q1018

TAF (pilot weather forecast)

Closest forecast is Carriel Sur Airport, 117.0 nm (216.8 km) SW. Retrieved 2019/05/19 12:00 UTC (25 minutes ago):

TAF SCIE 191032Z 1912/2012 21006KT CAVOK TX15/1918Z TN03/2011Z TEMPO 1912/1915 16004KT 4000 BR SCT004 BECMG 1916/1918 20010KT BECMG 1920/1922 23013KT SCT050 BKN200 TEMPO 2008/2012 2000 BR BKN002